sensor_id;sensor_type;location;lat;lon;timestamp;P1;durP1;ratioP1;P2;durP2;ratioP2
49051;SDS011;34866;48.670;18.260;2024-02-21T00:02:19;8.75;;;2.67;;
49051;SDS011;34866;48.670;18.260;2024-02-21T00:04:45;5.03;;;2.00;;
49051;SDS011;34866;48.670;18.260;2024-02-21T00:07:11;4.60;;;2.00;;
49051;SDS011;34866;48.670;18.260;2024-02-21T00:09:36;4.15;;;1.60;;
49051;SDS011;34866;48.670;18.260;2024-02-21T00:12:02;5.03;;;1.65;;
49051;SDS011;34866;48.670;18.260;2024-02-21T00:14:28;4.90;;;1.88;;
49051;SDS011;34866;48.670;18.260;2024-02-21T00:16:54;3.17;;;1.30;;
49051;SDS011;34866;48.670;18.260;2024-02-21T00:19:19;6.25;;;1.52;;
49051;SDS011;34866;48.670;18.260;2024-02-21T00:21:45;3.00;;;1.27;;
49051;SDS011;34866;48.670;18.260;2024-02-21T00:24:11;4.82;;;1.75;;
49051;SDS011;34866;48.670;18.260;2024-02-21T00:26:37;3.05;;;1.38;;
49051;SDS011;34866;48.670;18.260;2024-02-21T00:29:02;5.93;;;1.65;;
49051;SDS011;34866;48.670;18.260;2024-02-21T00:31:28;6.15;;;2.10;;
49051;SDS011;34866;48.670;18.260;2024-02-21T00:33:54;2.13;;;1.23;;
49051;SDS011;34866;48.670;18.260;2024-02-21T00:36:19;5.65;;;1.67;;
49051;SDS011;34866;48.670;18.260;2024-02-21T00:38:45;5.05;;;1.98;;
49051;SDS011;34866;48.670;18.260;2024-02-21T00:41:11;2.72;;;1.35;;
49051;SDS011;34866;48.670;18.260;2024-02-21T00:43:36;2.67;;;1.23;;
49051;SDS011;34866;48.670;18.260;2024-02-21T00:46:02;4.28;;;1.58;;
49051;SDS011;34866;48.670;18.260;2024-02-21T00:48:33;4.25;;;1.92;;
49051;SDS011;34866;48.670;18.260;2024-02-21T00:50:59;4.35;;;1.50;;
49051;SDS011;34866;48.670;18.260;2024-02-21T00:53:28;3.88;;;1.10;;
49051;SDS011;34866;48.670;18.260;2024-02-21T00:55:53;5.32;;;1.35;;
49051;SDS011;34866;48.670;18.260;2024-02-21T00:58:21;3.38;;;1.20;;
49051;SDS011;34866;48.670;18.260;2024-02-21T01:00:46;4.30;;;1.33;;
49051;SDS011;34866;48.670;18.260;2024-02-21T01:03:12;4.50;;;1.55;;
49051;SDS011;34866;48.670;18.260;2024-02-21T01:05:38;3.08;;;1.10;;
49051;SDS011;34866;48.670;18.260;2024-02-21T01:08:05;3.58;;;1.35;;
49051;SDS011;34866;48.670;18.260;2024-02-21T01:10:31;4.72;;;1.70;;
49051;SDS011;34866;48.670;18.260;2024-02-21T01:12:57;3.58;;;1.65;;
49051;SDS011;34866;48.670;18.260;2024-02-21T01:15:23;7.72;;;1.48;;
49051;SDS011;34866;48.670;18.260;2024-02-21T01:17:49;4.93;;;2.17;;
49051;SDS011;34866;48.670;18.260;2024-02-21T01:20:19;4.72;;;1.30;;
49051;SDS011;34866;48.670;18.260;2024-02-21T01:22:45;2.95;;;1.45;;
49051;SDS011;34866;48.670;18.260;2024-02-21T01:25:11;3.92;;;1.88;;
49051;SDS011;34866;48.670;18.260;2024-02-21T01:27:37;2.90;;;1.63;;
49051;SDS011;34866;48.670;18.260;2024-02-21T01:30:04;3.08;;;1.30;;
49051;SDS011;34866;48.670;18.260;2024-02-21T01:32:30;3.65;;;1.35;;
49051;SDS011;34866;48.670;18.260;2024-02-21T01:34:56;2.72;;;1.45;;
49051;SDS011;34866;48.670;18.260;2024-02-21T01:37:22;4.00;;;1.70;;
49051;SDS011;34866;48.670;18.260;2024-02-21T01:39:48;3.65;;;1.50;;
49051;SDS011;34866;48.670;18.260;2024-02-21T01:42:14;3.72;;;1.90;;
49051;SDS011;34866;48.670;18.260;2024-02-21T01:44:43;3.83;;;1.88;;
49051;SDS011;34866;48.670;18.260;2024-02-21T01:47:09;3.55;;;1.73;;
49051;SDS011;34866;48.670;18.260;2024-02-21T01:49:36;2.78;;;1.35;;
49051;SDS011;34866;48.670;18.260;2024-02-21T01:52:02;5.70;;;1.58;;
49051;SDS011;34866;48.670;18.260;2024-02-21T01:54:28;3.95;;;1.63;;
49051;SDS011;34866;48.670;18.260;2024-02-21T01:56:54;3.05;;;1.60;;
49051;SDS011;34866;48.670;18.260;2024-02-21T01:59:20;3.65;;;1.50;;
49051;SDS011;34866;48.670;18.260;2024-02-21T02:01:47;4.57;;;1.52;;
49051;SDS011;34866;48.670;18.260;2024-02-21T02:04:13;3.50;;;1.45;;
49051;SDS011;34866;48.670;18.260;2024-02-21T02:06:39;3.38;;;1.50;;
49051;SDS011;34866;48.670;18.260;2024-02-21T02:09:06;4.82;;;1.45;;
49051;SDS011;34866;48.670;18.260;2024-02-21T02:11:32;6.10;;;1.70;;
49051;SDS011;34866;48.670;18.260;2024-02-21T02:13:58;7.35;;;1.92;;
49051;SDS011;34866;48.670;18.260;2024-02-21T02:16:23;3.65;;;1.67;;
49051;SDS011;34866;48.670;18.260;2024-02-21T02:18:49;3.13;;;1.50;;
49051;SDS011;34866;48.670;18.260;2024-02-21T02:21:22;4.35;;;1.65;;
49051;SDS011;34866;48.670;18.260;2024-02-21T02:23:54;3.00;;;1.60;;
49051;SDS011;34866;48.670;18.260;2024-02-21T02:26:20;3.45;;;1.50;;
49051;SDS011;34866;48.670;18.260;2024-02-21T02:28:46;5.53;;;1.67;;
49051;SDS011;34866;48.670;18.260;2024-02-21T02:31:12;3.90;;;1.95;;
49051;SDS011;34866;48.670;18.260;2024-02-21T02:33:37;5.68;;;1.45;;
49051;SDS011;34866;48.670;18.260;2024-02-21T02:36:03;4.13;;;2.28;;
49051;SDS011;34866;48.670;18.260;2024-02-21T02:38:29;2.30;;;1.25;;
49051;SDS011;34866;48.670;18.260;2024-02-21T02:40:55;4.72;;;1.38;;
49051;SDS011;34866;48.670;18.260;2024-02-21T02:43:21;6.65;;;2.13;;
49051;SDS011;34866;48.670;18.260;2024-02-21T02:45:46;4.47;;;1.95;;
49051;SDS011;34866;48.670;18.260;2024-02-21T02:48:12;3.83;;;1.98;;
49051;SDS011;34866;48.670;18.260;2024-02-21T02:50:39;4.05;;;1.70;;
49051;SDS011;34866;48.670;18.260;2024-02-21T02:53:05;5.32;;;2.05;;
49051;SDS011;34866;48.670;18.260;2024-02-21T02:55:31;4.45;;;1.67;;
49051;SDS011;34866;48.670;18.260;2024-02-21T02:57:56;8.95;;;2.03;;
49051;SDS011;34866;48.670;18.260;2024-02-21T03:00:22;5.45;;;2.20;;
49051;SDS011;34866;48.670;18.260;2024-02-21T03:02:48;4.68;;;1.70;;
49051;SDS011;34866;48.670;18.260;2024-02-21T03:05:19;3.63;;;1.88;;
49051;SDS011;34866;48.670;18.260;2024-02-21T03:07:46;4.22;;;1.60;;
49051;SDS011;34866;48.670;18.260;2024-02-21T03:10:14;4.78;;;1.60;;
49051;SDS011;34866;48.670;18.260;2024-02-21T03:12:41;10.75;;;2.25;;
49051;SDS011;34866;48.670;18.260;2024-02-21T03:15:08;3.17;;;1.33;;
49051;SDS011;34866;48.670;18.260;2024-02-21T03:17:34;2.45;;;1.27;;
49051;SDS011;34866;48.670;18.260;2024-02-21T03:20:02;5.85;;;1.92;;
49051;SDS011;34866;48.670;18.260;2024-02-21T03:22:38;2.38;;;1.05;;
49051;SDS011;34866;48.670;18.260;2024-02-21T03:25:04;5.50;;;2.42;;
49051;SDS011;34866;48.670;18.260;2024-02-21T03:27:31;5.47;;;1.83;;
49051;SDS011;34866;48.670;18.260;2024-02-21T03:29:57;9.18;;;2.08;;
49051;SDS011;34866;48.670;18.260;2024-02-21T03:32:22;4.38;;;1.95;;
49051;SDS011;34866;48.670;18.260;2024-02-21T03:34:48;8.15;;;2.40;;
49051;SDS011;34866;48.670;18.260;2024-02-21T03:37:14;4.75;;;2.03;;
49051;SDS011;34866;48.670;18.260;2024-02-21T03:39:40;4.80;;;1.80;;
49051;SDS011;34866;48.670;18.260;2024-02-21T03:42:06;2.85;;;1.40;;
49051;SDS011;34866;48.670;18.260;2024-02-21T03:44:32;5.55;;;2.35;;
49051;SDS011;34866;48.670;18.260;2024-02-21T03:47:01;3.53;;;1.60;;
49051;SDS011;34866;48.670;18.260;2024-02-21T03:49:28;5.18;;;1.85;;
49051;SDS011;34866;48.670;18.260;2024-02-21T03:51:54;8.45;;;3.00;;
49051;SDS011;34866;48.670;18.260;2024-02-21T03:54:20;6.18;;;1.85;;
49051;SDS011;34866;48.670;18.260;2024-02-21T03:56:45;4.95;;;2.00;;
49051;SDS011;34866;48.670;18.260;2024-02-21T03:59:14;7.70;;;2.20;;
49051;SDS011;34866;48.670;18.260;2024-02-21T04:01:39;8.55;;;2.80;;
49051;SDS011;34866;48.670;18.260;2024-02-21T04:04:05;9.77;;;2.35;;
49051;SDS011;34866;48.670;18.260;2024-02-21T04:06:31;6.63;;;2.92;;
49051;SDS011;34866;48.670;18.260;2024-02-21T04:08:57;6.78;;;2.85;;
49051;SDS011;34866;48.670;18.260;2024-02-21T04:11:23;7.32;;;3.55;;
49051;SDS011;34866;48.670;18.260;2024-02-21T04:13:51;7.68;;;2.75;;
49051;SDS011;34866;48.670;18.260;2024-02-21T04:16:17;9.88;;;3.83;;
49051;SDS011;34866;48.670;18.260;2024-02-21T04:18:43;8.88;;;2.70;;
49051;SDS011;34866;48.670;18.260;2024-02-21T04:21:14;12.30;;;3.75;;
49051;SDS011;34866;48.670;18.260;2024-02-21T04:23:42;9.93;;;3.33;;
49051;SDS011;34866;48.670;18.260;2024-02-21T04:26:08;8.02;;;3.42;;
49051;SDS011;34866;48.670;18.260;2024-02-21T04:28:35;14.55;;;4.20;;
49051;SDS011;34866;48.670;18.260;2024-02-21T04:31:00;7.85;;;3.97;;
49051;SDS011;34866;48.670;18.260;2024-02-21T04:33:26;8.70;;;3.70;;
49051;SDS011;34866;48.670;18.260;2024-02-21T04:35:52;10.50;;;3.50;;
49051;SDS011;34866;48.670;18.260;2024-02-21T04:38:20;11.07;;;3.80;;
49051;SDS011;34866;48.670;18.260;2024-02-21T04:40:45;9.20;;;3.88;;
49051;SDS011;34866;48.670;18.260;2024-02-21T04:43:11;6.93;;;2.78;;
49051;SDS011;34866;48.670;18.260;2024-02-21T04:45:37;8.88;;;3.28;;
49051;SDS011;34866;48.670;18.260;2024-02-21T04:48:03;6.20;;;2.72;;
49051;SDS011;34866;48.670;18.260;2024-02-21T04:50:29;10.35;;;2.97;;
49051;SDS011;34866;48.670;18.260;2024-02-21T04:52:54;5.97;;;3.35;;
49051;SDS011;34866;48.670;18.260;2024-02-21T04:55:20;7.53;;;3.42;;
49051;SDS011;34866;48.670;18.260;2024-02-21T04:57:46;9.65;;;3.22;;
49051;SDS011;34866;48.670;18.260;2024-02-21T05:00:11;5.88;;;2.83;;
49051;SDS011;34866;48.670;18.260;2024-02-21T05:02:38;8.13;;;2.60;;
49051;SDS011;34866;48.670;18.260;2024-02-21T05:05:03;10.23;;;3.70;;
49051;SDS011;34866;48.670;18.260;2024-02-21T05:07:29;9.25;;;3.90;;
49051;SDS011;34866;48.670;18.260;2024-02-21T05:09:55;5.13;;;2.85;;
49051;SDS011;34866;48.670;18.260;2024-02-21T05:12:21;7.93;;;2.95;;
49051;SDS011;34866;48.670;18.260;2024-02-21T05:14:46;8.52;;;3.47;;
49051;SDS011;34866;48.670;18.260;2024-02-21T05:17:12;6.30;;;2.80;;
49051;SDS011;34866;48.670;18.260;2024-02-21T05:19:38;6.05;;;2.85;;
49051;SDS011;34866;48.670;18.260;2024-02-21T05:22:04;9.93;;;3.15;;
49051;SDS011;34866;48.670;18.260;2024-02-21T05:24:29;10.30;;;3.35;;
49051;SDS011;34866;48.670;18.260;2024-02-21T05:26:55;12.15;;;3.20;;
49051;SDS011;34866;48.670;18.260;2024-02-21T05:29:21;6.18;;;2.45;;
49051;SDS011;34866;48.670;18.260;2024-02-21T05:34:16;16.05;;;3.45;;
49051;SDS011;34866;48.670;18.260;2024-02-21T05:36:42;7.50;;;3.67;;
49051;SDS011;34866;48.670;18.260;2024-02-21T05:39:08;5.88;;;2.83;;
49051;SDS011;34866;48.670;18.260;2024-02-21T05:41:34;5.40;;;3.03;;
49051;SDS011;34866;48.670;18.260;2024-02-21T05:43:59;5.32;;;2.58;;
49051;SDS011;34866;48.670;18.260;2024-02-21T05:46:25;6.57;;;3.20;;
49051;SDS011;34866;48.670;18.260;2024-02-21T05:48:50;8.55;;;3.22;;
49051;SDS011;34866;48.670;18.260;2024-02-21T05:51:16;5.25;;;2.83;;
49051;SDS011;34866;48.670;18.260;2024-02-21T05:53:42;5.25;;;2.75;;
49051;SDS011;34866;48.670;18.260;2024-02-21T05:56:11;6.25;;;3.08;;
49051;SDS011;34866;48.670;18.260;2024-02-21T05:58:37;5.30;;;2.47;;
49051;SDS011;34866;48.670;18.260;2024-02-21T06:01:03;5.95;;;2.92;;
49051;SDS011;34866;48.670;18.260;2024-02-21T06:03:29;4.30;;;2.83;;
49051;SDS011;34866;48.670;18.260;2024-02-21T06:05:55;8.30;;;3.47;;
49051;SDS011;34866;48.670;18.260;2024-02-21T06:08:21;10.32;;;3.65;;
49051;SDS011;34866;48.670;18.260;2024-02-21T06:10:47;6.90;;;2.83;;
49051;SDS011;34866;48.670;18.260;2024-02-21T06:13:19;7.35;;;3.15;;
49051;SDS011;34866;48.670;18.260;2024-02-21T06:15:46;9.45;;;3.42;;
49051;SDS011;34866;48.670;18.260;2024-02-21T06:18:12;8.73;;;3.28;;
49051;SDS011;34866;48.670;18.260;2024-02-21T06:20:38;8.32;;;3.75;;
49051;SDS011;34866;48.670;18.260;2024-02-21T06:23:05;7.10;;;3.67;;
49051;SDS011;34866;48.670;18.260;2024-02-21T06:25:31;6.40;;;3.00;;
49051;SDS011;34866;48.670;18.260;2024-02-21T06:27:57;6.72;;;3.17;;
49051;SDS011;34866;48.670;18.260;2024-02-21T06:30:23;4.72;;;2.97;;
49051;SDS011;34866;48.670;18.260;2024-02-21T06:32:48;7.47;;;3.33;;
49051;SDS011;34866;48.670;18.260;2024-02-21T06:35:16;5.35;;;3.00;;
49051;SDS011;34866;48.670;18.260;2024-02-21T06:37:42;7.28;;;3.25;;
49051;SDS011;34866;48.670;18.260;2024-02-21T06:40:10;9.27;;;3.58;;
49051;SDS011;34866;48.670;18.260;2024-02-21T06:42:36;7.57;;;3.35;;
49051;SDS011;34866;48.670;18.260;2024-02-21T06:45:01;10.70;;;2.75;;
49051;SDS011;34866;48.670;18.260;2024-02-21T06:47:29;11.20;;;4.28;;
49051;SDS011;34866;48.670;18.260;2024-02-21T06:49:56;7.20;;;3.67;;
49051;SDS011;34866;48.670;18.260;2024-02-21T06:52:21;6.38;;;3.35;;
49051;SDS011;34866;48.670;18.260;2024-02-21T06:54:49;10.45;;;3.97;;
49051;SDS011;34866;48.670;18.260;2024-02-21T06:57:14;6.30;;;3.38;;
49051;SDS011;34866;48.670;18.260;2024-02-21T06:59:43;6.45;;;3.60;;
49051;SDS011;34866;48.670;18.260;2024-02-21T07:02:10;5.95;;;3.33;;
49051;SDS011;34866;48.670;18.260;2024-02-21T07:04:36;7.05;;;4.47;;
49051;SDS011;34866;48.670;18.260;2024-02-21T07:07:01;8.10;;;4.47;;
49051;SDS011;34866;48.670;18.260;2024-02-21T07:09:27;5.53;;;3.00;;
49051;SDS011;34866;48.670;18.260;2024-02-21T07:11:56;9.52;;;4.57;;
49051;SDS011;34866;48.670;18.260;2024-02-21T07:14:23;7.78;;;4.18;;
49051;SDS011;34866;48.670;18.260;2024-02-21T07:16:48;7.00;;;3.42;;
49051;SDS011;34866;48.670;18.260;2024-02-21T07:19:14;9.32;;;4.82;;
49051;SDS011;34866;48.670;18.260;2024-02-21T07:21:40;7.60;;;4.03;;
49051;SDS011;34866;48.670;18.260;2024-02-21T07:24:07;10.85;;;5.03;;
49051;SDS011;34866;48.670;18.260;2024-02-21T07:26:33;9.43;;;4.82;;
49051;SDS011;34866;48.670;18.260;2024-02-21T07:28:59;16.25;;;5.07;;
49051;SDS011;34866;48.670;18.260;2024-02-21T07:31:24;10.52;;;4.05;;
49051;SDS011;34866;48.670;18.260;2024-02-21T07:33:50;14.55;;;5.90;;
49051;SDS011;34866;48.670;18.260;2024-02-21T07:36:16;10.82;;;4.82;;
49051;SDS011;34866;48.670;18.260;2024-02-21T07:38:55;9.77;;;4.18;;
49051;SDS011;34866;48.670;18.260;2024-02-21T07:41:21;9.68;;;3.90;;
49051;SDS011;34866;48.670;18.260;2024-02-21T07:43:47;13.05;;;5.78;;
49051;SDS011;34866;48.670;18.260;2024-02-21T07:46:13;10.27;;;4.47;;
49051;SDS011;34866;48.670;18.260;2024-02-21T07:48:39;10.40;;;4.00;;
49051;SDS011;34866;48.670;18.260;2024-02-21T07:51:05;7.45;;;4.20;;
49051;SDS011;34866;48.670;18.260;2024-02-21T07:53:31;10.15;;;3.80;;
49051;SDS011;34866;48.670;18.260;2024-02-21T07:55:56;10.65;;;4.10;;
49051;SDS011;34866;48.670;18.260;2024-02-21T07:58:22;8.70;;;4.28;;
49051;SDS011;34866;48.670;18.260;2024-02-21T08:00:48;12.32;;;5.13;;
49051;SDS011;34866;48.670;18.260;2024-02-21T08:03:13;6.85;;;3.80;;
49051;SDS011;34866;48.670;18.260;2024-02-21T08:05:42;8.93;;;4.32;;
49051;SDS011;34866;48.670;18.260;2024-02-21T08:08:08;10.48;;;4.40;;
49051;SDS011;34866;48.670;18.260;2024-02-21T08:10:35;7.45;;;3.55;;
49051;SDS011;34866;48.670;18.260;2024-02-21T08:13:01;8.55;;;3.63;;
49051;SDS011;34866;48.670;18.260;2024-02-21T08:15:27;9.32;;;3.58;;
49051;SDS011;34866;48.670;18.260;2024-02-21T08:17:54;7.57;;;3.67;;
49051;SDS011;34866;48.670;18.260;2024-02-21T08:20:24;7.18;;;3.00;;
49051;SDS011;34866;48.670;18.260;2024-02-21T08:22:51;8.05;;;3.33;;
49051;SDS011;34866;48.670;18.260;2024-02-21T08:25:17;7.75;;;3.47;;
49051;SDS011;34866;48.670;18.260;2024-02-21T08:27:43;8.30;;;4.00;;
49051;SDS011;34866;48.670;18.260;2024-02-21T08:30:09;6.90;;;3.72;;
49051;SDS011;34866;48.670;18.260;2024-02-21T08:32:36;8.07;;;3.50;;
49051;SDS011;34866;48.670;18.260;2024-02-21T08:35:02;12.75;;;3.28;;
49051;SDS011;34866;48.670;18.260;2024-02-21T08:37:28;7.28;;;3.08;;
49051;SDS011;34866;48.670;18.260;2024-02-21T08:39:54;7.30;;;3.33;;
49051;SDS011;34866;48.670;18.260;2024-02-21T08:42:20;10.63;;;3.47;;
49051;SDS011;34866;48.670;18.260;2024-02-21T08:44:45;6.78;;;3.72;;
49051;SDS011;34866;48.670;18.260;2024-02-21T08:47:11;7.55;;;3.33;;
49051;SDS011;34866;48.670;18.260;2024-02-21T08:49:37;6.15;;;2.95;;
49051;SDS011;34866;48.670;18.260;2024-02-21T08:52:03;11.65;;;3.60;;
49051;SDS011;34866;48.670;18.260;2024-02-21T08:54:30;7.55;;;3.45;;
49051;SDS011;34866;48.670;18.260;2024-02-21T08:56:56;11.23;;;3.10;;
49051;SDS011;34866;48.670;18.260;2024-02-21T08:59:22;7.20;;;2.88;;
49051;SDS011;34866;48.670;18.260;2024-02-21T09:01:47;4.75;;;2.53;;
49051;SDS011;34866;48.670;18.260;2024-02-21T09:04:13;7.47;;;3.70;;
49051;SDS011;34866;48.670;18.260;2024-02-21T09:06:38;8.77;;;3.85;;
49051;SDS011;34866;48.670;18.260;2024-02-21T09:09:08;10.10;;;3.53;;
49051;SDS011;34866;48.670;18.260;2024-02-21T09:11:34;9.55;;;3.47;;
49051;SDS011;34866;48.670;18.260;2024-02-21T09:14:01;11.30;;;3.20;;
49051;SDS011;34866;48.670;18.260;2024-02-21T09:16:30;19.10;;;3.20;;
49051;SDS011;34866;48.670;18.260;2024-02-21T09:18:57;6.95;;;2.90;;
49051;SDS011;34866;48.670;18.260;2024-02-21T09:21:22;7.07;;;3.65;;
49051;SDS011;34866;48.670;18.260;2024-02-21T09:23:48;12.25;;;4.07;;
49051;SDS011;34866;48.670;18.260;2024-02-21T09:26:14;5.22;;;2.72;;
49051;SDS011;34866;48.670;18.260;2024-02-21T09:28:42;6.47;;;3.20;;
49051;SDS011;34866;48.670;18.260;2024-02-21T09:31:08;7.50;;;3.33;;
49051;SDS011;34866;48.670;18.260;2024-02-21T09:33:34;7.05;;;2.80;;
49051;SDS011;34866;48.670;18.260;2024-02-21T09:36:00;7.45;;;3.90;;
49051;SDS011;34866;48.670;18.260;2024-02-21T09:38:26;9.75;;;3.25;;
49051;SDS011;34866;48.670;18.260;2024-02-21T09:40:59;7.55;;;2.88;;
49051;SDS011;34866;48.670;18.260;2024-02-21T09:43:45;7.53;;;3.10;;
49051;SDS011;34866;48.670;18.260;2024-02-21T09:46:13;6.60;;;2.92;;
49051;SDS011;34866;48.670;18.260;2024-02-21T09:48:47;5.20;;;2.95;;
49051;SDS011;34866;48.670;18.260;2024-02-21T09:51:21;7.38;;;3.20;;
49051;SDS011;34866;48.670;18.260;2024-02-21T09:53:49;9.10;;;3.10;;
49051;SDS011;34866;48.670;18.260;2024-02-21T09:56:18;6.18;;;2.97;;
49051;SDS011;34866;48.670;18.260;2024-02-21T09:58:43;7.88;;;2.72;;
49051;SDS011;34866;48.670;18.260;2024-02-21T10:01:11;6.80;;;3.20;;
49051;SDS011;34866;48.670;18.260;2024-02-21T10:03:37;10.18;;;3.40;;
49051;SDS011;34866;48.670;18.260;2024-02-21T10:06:03;10.07;;;2.80;;
49051;SDS011;34866;48.670;18.260;2024-02-21T10:08:29;6.18;;;2.63;;
49051;SDS011;34866;48.670;18.260;2024-02-21T10:10:54;5.93;;;3.08;;
49051;SDS011;34866;48.670;18.260;2024-02-21T10:13:27;9.93;;;2.80;;
49051;SDS011;34866;48.670;18.260;2024-02-21T10:16:01;9.63;;;2.75;;
49051;SDS011;34866;48.670;18.260;2024-02-21T10:18:27;10.25;;;2.97;;
49051;SDS011;34866;48.670;18.260;2024-02-21T10:21:06;10.32;;;2.80;;
49051;SDS011;34866;48.670;18.260;2024-02-21T10:23:45;7.30;;;2.78;;
49051;SDS011;34866;48.670;18.260;2024-02-21T10:26:11;8.07;;;2.55;;
49051;SDS011;34866;48.670;18.260;2024-02-21T10:28:37;7.47;;;2.75;;
49051;SDS011;34866;48.670;18.260;2024-02-21T10:31:11;8.65;;;3.25;;
49051;SDS011;34866;48.670;18.260;2024-02-21T10:33:53;9.38;;;2.63;;
49051;SDS011;34866;48.670;18.260;2024-02-21T10:36:22;7.63;;;2.65;;
49051;SDS011;34866;48.670;18.260;2024-02-21T10:38:49;13.77;;;2.85;;
49051;SDS011;34866;48.670;18.260;2024-02-21T10:41:17;6.95;;;2.70;;
49051;SDS011;34866;48.670;18.260;2024-02-21T10:43:46;10.73;;;2.58;;
49051;SDS011;34866;48.670;18.260;2024-02-21T10:46:19;5.85;;;2.47;;
49051;SDS011;34866;48.670;18.260;2024-02-21T10:48:46;11.85;;;2.90;;
49051;SDS011;34866;48.670;18.260;2024-02-21T10:56:33;6.82;;;2.40;;
49051;SDS011;34866;48.670;18.260;2024-02-21T10:59:02;8.30;;;2.90;;
49051;SDS011;34866;48.670;18.260;2024-02-21T11:01:31;11.65;;;2.45;;
49051;SDS011;34866;48.670;18.260;2024-02-21T11:03:58;9.77;;;3.15;;
49051;SDS011;34866;48.670;18.260;2024-02-21T11:06:28;8.75;;;2.03;;
49051;SDS011;34866;48.670;18.260;2024-02-21T11:09:07;8.00;;;2.70;;
49051;SDS011;34866;48.670;18.260;2024-02-21T11:11:40;9.00;;;2.65;;
49051;SDS011;34866;48.670;18.260;2024-02-21T11:14:09;8.00;;;2.40;;
49051;SDS011;34866;48.670;18.260;2024-02-21T11:16:47;7.95;;;2.22;;
49051;SDS011;34866;48.670;18.260;2024-02-21T11:19:19;7.88;;;2.40;;
49051;SDS011;34866;48.670;18.260;2024-02-21T11:21:46;9.48;;;2.30;;
49051;SDS011;34866;48.670;18.260;2024-02-21T11:24:28;6.03;;;2.00;;
49051;SDS011;34866;48.670;18.260;2024-02-21T11:26:55;9.00;;;2.97;;
49051;SDS011;34866;48.670;18.260;2024-02-21T11:29:25;7.30;;;2.60;;
49051;SDS011;34866;48.670;18.260;2024-02-21T11:31:51;6.30;;;2.38;;
49051;SDS011;34866;48.670;18.260;2024-02-21T11:34:18;13.52;;;3.00;;
49051;SDS011;34866;48.670;18.260;2024-02-21T11:36:48;7.30;;;2.42;;
49051;SDS011;34866;48.670;18.260;2024-02-21T11:39:22;5.50;;;2.70;;
49051;SDS011;34866;48.670;18.260;2024-02-21T11:42:01;8.52;;;3.38;;
49051;SDS011;34866;48.670;18.260;2024-02-21T11:44:29;12.25;;;2.80;;
49051;SDS011;34866;48.670;18.260;2024-02-21T11:46:55;9.25;;;2.92;;
49051;SDS011;34866;48.670;18.260;2024-02-21T11:49:20;7.28;;;2.80;;
49051;SDS011;34866;48.670;18.260;2024-02-21T11:51:46;9.60;;;2.50;;
49051;SDS011;34866;48.670;18.260;2024-02-21T11:54:13;7.90;;;2.55;;
49051;SDS011;34866;48.670;18.260;2024-02-21T11:56:41;6.90;;;2.58;;
49051;SDS011;34866;48.670;18.260;2024-02-21T11:59:08;9.75;;;2.53;;
49051;SDS011;34866;48.670;18.260;2024-02-21T12:01:34;5.68;;;2.50;;
49051;SDS011;34866;48.670;18.260;2024-02-21T12:03:59;10.70;;;2.42;;
49051;SDS011;34866;48.670;18.260;2024-02-21T12:06:25;8.50;;;2.75;;
49051;SDS011;34866;48.670;18.260;2024-02-21T12:08:52;8.32;;;3.58;;
49051;SDS011;34866;48.670;18.260;2024-02-21T12:11:23;5.20;;;2.50;;
49051;SDS011;34866;48.670;18.260;2024-02-21T12:14:01;9.68;;;2.60;;
49051;SDS011;34866;48.670;18.260;2024-02-21T12:16:29;6.85;;;2.53;;
49051;SDS011;34866;48.670;18.260;2024-02-21T12:18:56;7.57;;;2.10;;
49051;SDS011;34866;48.670;18.260;2024-02-21T12:21:25;10.13;;;3.03;;
49051;SDS011;34866;48.670;18.260;2024-02-21T12:24:00;8.88;;;3.67;;
49051;SDS011;34866;48.670;18.260;2024-02-21T12:26:36;9.02;;;2.90;;
49051;SDS011;34866;48.670;18.260;2024-02-21T12:29:02;7.30;;;3.10;;
49051;SDS011;34866;48.670;18.260;2024-02-21T12:31:28;7.55;;;3.13;;
49051;SDS011;34866;48.670;18.260;2024-02-21T12:33:54;7.97;;;3.03;;
49051;SDS011;34866;48.670;18.260;2024-02-21T12:36:22;7.85;;;2.92;;
49051;SDS011;34866;48.670;18.260;2024-02-21T12:38:49;10.85;;;3.55;;
49051;SDS011;34866;48.670;18.260;2024-02-21T12:41:15;13.82;;;3.35;;
49051;SDS011;34866;48.670;18.260;2024-02-21T12:43:41;7.38;;;2.92;;
49051;SDS011;34866;48.670;18.260;2024-02-21T12:46:08;5.80;;;2.95;;
49051;SDS011;34866;48.670;18.260;2024-02-21T12:48:34;10.13;;;3.28;;
49051;SDS011;34866;48.670;18.260;2024-02-21T12:51:00;13.25;;;3.30;;
49051;SDS011;34866;48.670;18.260;2024-02-21T12:53:26;10.95;;;4.43;;
49051;SDS011;34866;48.670;18.260;2024-02-21T12:55:52;9.63;;;3.22;;
49051;SDS011;34866;48.670;18.260;2024-02-21T12:58:18;10.55;;;3.40;;
49051;SDS011;34866;48.670;18.260;2024-02-21T13:00:44;10.73;;;3.25;;
49051;SDS011;34866;48.670;18.260;2024-02-21T13:03:10;8.55;;;3.08;;
49051;SDS011;34866;48.670;18.260;2024-02-21T13:05:36;8.73;;;3.22;;
49051;SDS011;34866;48.670;18.260;2024-02-21T13:08:04;5.80;;;3.20;;
49051;SDS011;34866;48.670;18.260;2024-02-21T13:10:30;10.70;;;3.22;;
49051;SDS011;34866;48.670;18.260;2024-02-21T13:12:58;13.00;;;2.70;;
49051;SDS011;34866;48.670;18.260;2024-02-21T13:15:24;10.32;;;3.75;;
49051;SDS011;34866;48.670;18.260;2024-02-21T13:17:50;7.10;;;2.67;;
49051;SDS011;34866;48.670;18.260;2024-02-21T13:20:16;11.35;;;3.00;;
49051;SDS011;34866;48.670;18.260;2024-02-21T13:22:43;6.50;;;3.20;;
49051;SDS011;34866;48.670;18.260;2024-02-21T13:25:09;7.72;;;2.72;;
49051;SDS011;34866;48.670;18.260;2024-02-21T13:27:38;12.45;;;3.15;;
49051;SDS011;34866;48.670;18.260;2024-02-21T13:30:04;8.35;;;2.67;;
49051;SDS011;34866;48.670;18.260;2024-02-21T13:32:32;8.82;;;3.30;;
49051;SDS011;34866;48.670;18.260;2024-02-21T13:34:58;11.52;;;3.92;;
49051;SDS011;34866;48.670;18.260;2024-02-21T13:37:26;13.18;;;5.28;;
49051;SDS011;34866;48.670;18.260;2024-02-21T13:39:53;14.98;;;5.07;;
49051;SDS011;34866;48.670;18.260;2024-02-21T13:42:19;12.93;;;4.47;;
49051;SDS011;34866;48.670;18.260;2024-02-21T13:44:45;8.80;;;3.60;;
49051;SDS011;34866;48.670;18.260;2024-02-21T13:47:14;10.63;;;3.83;;
49051;SDS011;34866;48.670;18.260;2024-02-21T13:49:41;8.90;;;3.92;;
49051;SDS011;34866;48.670;18.260;2024-02-21T13:52:07;14.77;;;4.47;;
49051;SDS011;34866;48.670;18.260;2024-02-21T13:54:34;11.82;;;3.92;;
49051;SDS011;34866;48.670;18.260;2024-02-21T13:57:00;12.27;;;4.90;;
49051;SDS011;34866;48.670;18.260;2024-02-21T13:59:27;16.33;;;6.32;;
49051;SDS011;34866;48.670;18.260;2024-02-21T14:01:53;13.80;;;4.68;;
49051;SDS011;34866;48.670;18.260;2024-02-21T14:04:19;12.98;;;4.75;;
49051;SDS011;34866;48.670;18.260;2024-02-21T14:06:45;8.20;;;3.72;;
49051;SDS011;34866;48.670;18.260;2024-02-21T14:09:11;15.35;;;4.05;;
49051;SDS011;34866;48.670;18.260;2024-02-21T14:11:38;10.80;;;5.15;;
49051;SDS011;34866;48.670;18.260;2024-02-21T14:14:05;22.70;;;5.07;;
49051;SDS011;34866;48.670;18.260;2024-02-21T14:16:31;13.85;;;5.65;;
49051;SDS011;34866;48.670;18.260;2024-02-21T14:18:57;12.43;;;5.68;;
49051;SDS011;34866;48.670;18.260;2024-02-21T14:21:23;14.73;;;5.90;;
49051;SDS011;34866;48.670;18.260;2024-02-21T14:23:49;20.00;;;4.90;;
49051;SDS011;34866;48.670;18.260;2024-02-21T14:26:16;13.07;;;4.57;;
49051;SDS011;34866;48.670;18.260;2024-02-21T14:28:42;10.20;;;4.45;;
49051;SDS011;34866;48.670;18.260;2024-02-21T14:31:08;12.63;;;5.25;;
49051;SDS011;34866;48.670;18.260;2024-02-21T14:33:36;11.05;;;4.55;;
49051;SDS011;34866;48.670;18.260;2024-02-21T14:36:03;11.93;;;3.58;;
49051;SDS011;34866;48.670;18.260;2024-02-21T14:38:29;10.63;;;4.03;;